HECAHEAR

Guest
Details From HECA - Cairo Intl
To HEAR - El Arish Intl
Flight Number -
Tags Generated
Created
Modified
Stats Distance 138 nm / 255 km
Max Altitude 0 ft / 0 m
Waypoints 2
Social Downloads 0
Likes 0
Share VATSIM

Download

Looking for another format? Having issues loading an existing format? Contact us
Advertisement - Login to hide

Notes

Generated

Route

HECA HEAR

ID Type Via Altitude Latitude Longitude Leg Dist Tot Dist Heading (true) Name
O HECA APT - 0 ft / 0 m 30.13821˚ 31.40615˚ - 0 nm - -
O HEAR APT - 0 ft / 0 m 31.08576˚ 33.82968˚ 137 nm 137 nm 65° / 66° -

Altitude Profile

Advertisement - Login to hide

HECA

Details ICAO HECA (CAI)
Name Cairo Intl
Region Egypt
Timezone Africa/Cairo (UTC+2.0)
Stats Elevation 382 ft / 116 m (AMSL)
Location 30.121808° 31.406095°
Runways 3
Magnetic Variation 4.404° E

METAR

HECA 142230Z 29005KT 6000 NSC 17/11 Q1020 NOSIG

Decode

TAF

TAF HECA 141700Z 1418/1524 33008KT 9999 SCT025 PROB30 TEMPO 1504/1506 VRB03KT 4000 BR NSC

Decode

Departure Runways

ID Width Length Bearing (true) Bearing (mag) Surface Threshold Offset Overrun Length
05L 197 ft / 60 m 10,833 ft / 3,302 m 49.29° 44.89° Asphalt 0 ft / 0 m 185 ft / 56 m
05R 197 ft / 60 m 13,126 ft / 4,001 m 49.03° 44.63° Asphalt 0 ft / 0 m 216 ft / 66 m
16 197 ft / 60 m 10,456 ft / 3,187 m 162.61° 158.21° Asphalt 0 ft / 0 m 125 ft / 38 m
23L 197 ft / 60 m 13,126 ft / 4,001 m 229.05° 224.65° Asphalt 0 ft / 0 m 225 ft / 69 m
23R 197 ft / 60 m 10,833 ft / 3,302 m 229.30° 224.90° Asphalt 0 ft / 0 m 185 ft / 56 m
34 197 ft / 60 m 10,456 ft / 3,187 m 342.61° 338.21° Asphalt 0 ft / 0 m 195 ft / 59 m

HEAR

Details ICAO HEAR (AAC)
Name EL ARISH INTL
Region Egypt
Timezone Africa/Cairo (UTC+2.0)
Stats Elevation 121 ft / 37 m (AMSL)
Location 31.073224° 33.835857°
Runways 1
Magnetic Variation 4.569° E

METAR

HEAR 142200Z 24003KT CAVOK 12/05 Q1019 NOSIG

Decode

TAF

Not found

Destination Runways

ID Width Length Bearing (true) Bearing (mag) Surface Threshold Offset Overrun Length
16 148 ft / 45 m 9,929 ft / 3,026 m 157.09° 152.52° Asphalt 0 ft / 0 m 200 ft / 61 m
34 148 ft / 45 m 9,929 ft / 3,026 m 337.10° 332.53° Asphalt 0 ft / 0 m 210 ft / 64 m

Popular Alternatives